Four Points, Texas
Current Conditions -  °F | °C
As of 3:51 PM on Thursday 18 Dec 2014 (Local Time) from KATT Reporting Station
Overcast Overcast  
Wind Chill: 60°   Ceiling: 1000
Heat Index: 60°   Visibility: 10mi
Dew Point: 55°   Wind: 0mph
Humidity: 83%   Direction: NA
Pressure: 30.06"   Gusts: NA
Location:  30.3745°N, 97.8933°W
Report Text: KATT 182151Z AUTO 00000KT 10SM OVC010 16/13 A3006 RMK AO2 SLP179 T01560128
Loading
Personal Weather Stations






























Interactive Weather Map New forecast layout! Learn more

10-Day Weather Forecast

Advertisements
Track Severe Weather on mobile